Impacts METAR Board
IDs:

KCVG - Cincinnati Intl, KY, US

Updated at: 1300 UTC 07 Jul 2020
Potential Impact None Slight Moderate High
Time 07/01Z 07/02Z 07/03Z 07/04Z 07/05Z 07/06Z 07/07Z 07/08Z 07/09Z 07/10Z 07/11Z 07/12Z 07/13Z
Temp76 75 71 72 72 70 73 69 71 70 69 73 76
Dewpt68 70 69 69 69 68 68 67 67 67 66 68 69
Altim29.99 30.00 30.03 30.04 30.02 30.02 30.02 30.01 30.01 30.00 30.01 30.02 30.04
VIS8 7 6 7 7 7 9 7 7 8 7 7 9
CIG190 250 -- 230 -- -- 150 -- 220 -- -- -- --
CoverBKNBKNSCTBKNFEWFEWBKNFEWBKNFEWSCTFEWFEW
FltCatVFRVFRVFRVFRVFRVFRVFRVFRVFRVFRVFRVFRVFR
WX----BR--------------------
WDir03502001800140140140000170150
WSpd0 5 3 6 0 3 3 5 0 0 0 4 4
WGst-- -- -- -- -- -- -- -- -- -- -- -- --
Raw hourly METARs
KCVG 070052Z 00000KT 8SM FEW070 FEW100 SCT140 BKN190 BKN250 24/20 A2999 RMK AO2 RAB34E48 SLP145 P0000 T02440200
KCVG 070152Z 35005KT 7SM FEW110 FEW200 BKN250 24/21 A3000 RMK AO2 SLP150 T02390211
KCVG 070252Z 20003KT 6SM BR FEW110 SCT200 22/21 A3003 RMK AO2 SLP161 60000 T02170206 53007
KCVG 070352Z 18006KT 7SM FEW110 BKN230 22/21 A3004 RMK AO2 SLP161 T02220206
KCVG 070452Z 00000KT 7SM FEW140 FEW220 22/21 A3002 RMK AO2 SLP155 T02220206 403280217
KCVG 070552Z 14003KT 7SM FEW140 21/20 A3002 RMK AO2 SLP156 60000 T02110200 10244 20211 58002
KCVG 070652Z 14003KT 9SM BKN150 23/20 A3002 RMK AO2 SLP155 T02280200
KCVG 070752Z 14005KT 7SM FEW150 21/19 A3001 RMK AO2 SLP150 T02060194
KCVG 070852Z 00000KT 7SM BKN220 22/19 A3001 RMK AO2 SLP150 T02170194 56005
KCVG 070952Z 00000KT 8SM FEW150 21/19 A3000 RMK AO2 SLP148 T02110194
KCVG 071052Z 00000KT 7SM FEW150 SCT250 21/19 A3001 RMK AO2 SLP155 T02060189
KCVG 071152Z 17004KT 7SM FEW170 FEW250 23/20 A3002 RMK AO2 SLP155 70040 T02280200 10228 20200 53002
KCVG 071252Z 15004KT 9SM FEW160 FEW250 24/21 A3004 RMK AO2 SLP160 T02440206



Page loaded:  13:49 UTC  |   06:49 AM Pacific  |   07:49 AM Mountain  |   08:49 AM Central  |   09:49 AM Eastern

 

ADVISORIES

FORECASTS

FORECASTS

OBSERVATIONS

USER TOOLS

ABOUT US